sensor_id;sensor_type;location;lat;lon;timestamp;pressure;altitude;pressure_sealevel;temperature;humidity
64739;BME280;51175;51.186;0.276;2022-10-31T00:00:27;101389.63;;;17.77;68.57
64739;BME280;51175;51.186;0.276;2022-10-31T00:00:58;101385.09;;;17.78;68.82
64739;BME280;51175;51.186;0.276;2022-10-31T00:01:32;101381.59;;;17.77;68.81
64739;BME280;51175;51.186;0.276;2022-10-31T00:02:03;101380.03;;;17.76;68.39
64739;BME280;51175;51.186;0.276;2022-10-31T00:02:34;101386.94;;;17.77;68.80
64739;BME280;51175;51.186;0.276;2022-10-31T00:03:04;101388.03;;;17.76;68.72
64739;BME280;51175;51.186;0.276;2022-10-31T00:03:34;101388.03;;;17.76;68.74
64739;BME280;51175;51.186;0.276;2022-10-31T00:04:05;101384.28;;;17.77;68.61
64739;BME280;51175;51.186;0.276;2022-10-31T00:04:36;101378.94;;;17.77;68.71
64739;BME280;51175;51.186;0.276;2022-10-31T00:05:06;101384.28;;;17.77;68.42
64739;BME280;51175;51.186;0.276;2022-10-31T00:05:43;101386.94;;;17.77;68.65
64739;BME280;51175;51.186;0.276;2022-10-31T00:06:15;101386.16;;;17.77;68.88
64739;BME280;51175;51.186;0.276;2022-10-31T00:06:48;101388.03;;;17.76;68.56
64739;BME280;51175;51.186;0.276;2022-10-31T00:07:18;101388.03;;;17.76;68.86
64739;BME280;51175;51.186;0.276;2022-10-31T00:07:52;101383.50;;;17.77;68.85
64739;BME280;51175;51.186;0.276;2022-10-31T00:08:22;101383.50;;;17.77;68.75
64739;BME280;51175;51.186;0.276;2022-10-31T00:08:57;101383.50;;;17.77;68.67
64739;BME280;51175;51.186;0.276;2022-10-31T00:09:28;101383.50;;;17.77;68.88
64739;BME280;51175;51.186;0.276;2022-10-31T00:09:58;101388.03;;;17.76;68.71
64739;BME280;51175;51.186;0.276;2022-10-31T00:10:29;101386.16;;;17.77;68.56
64739;BME280;51175;51.186;0.276;2022-10-31T00:10:59;101380.03;;;17.76;68.73
64739;BME280;51175;51.186;0.276;2022-10-31T00:11:30;101385.38;;;17.76;68.74
64739;BME280;51175;51.186;0.276;2022-10-31T00:12:00;101380.81;;;17.77;68.44
64739;BME280;51175;51.186;0.276;2022-10-31T00:12:31;101383.50;;;17.77;68.58
64739;BME280;51175;51.186;0.276;2022-10-31T00:13:01;101379.22;;;17.75;68.41
64739;BME280;51175;51.186;0.276;2022-10-31T00:13:31;101386.94;;;17.77;68.49
64739;BME280;51175;51.186;0.276;2022-10-31T00:14:03;101374.69;;;17.76;68.70
64739;BME280;51175;51.186;0.276;2022-10-31T00:14:33;101379.22;;;17.75;68.70
64739;BME280;51175;51.186;0.276;2022-10-31T00:15:04;101379.22;;;17.75;68.90
64739;BME280;51175;51.186;0.276;2022-10-31T00:15:35;101384.56;;;17.75;68.67
64739;BME280;51175;51.186;0.276;2022-10-31T00:16:13;101378.16;;;17.77;68.54
64739;BME280;51175;51.186;0.276;2022-10-31T00:16:43;101374.69;;;17.76;68.64
64739;BME280;51175;51.186;0.276;2022-10-31T00:17:13;101378.44;;;17.75;68.92
64739;BME280;51175;51.186;0.276;2022-10-31T00:17:44;101373.88;;;17.75;68.63
64739;BME280;51175;51.186;0.276;2022-10-31T00:18:14;101373.88;;;17.75;68.71
64739;BME280;51175;51.186;0.276;2022-10-31T00:18:48;101374.69;;;17.76;68.88
64739;BME280;51175;51.186;0.276;2022-10-31T00:19:19;101379.22;;;17.75;68.51
64739;BME280;51175;51.186;0.276;2022-10-31T00:19:49;101379.22;;;17.75;68.49
64739;BME280;51175;51.186;0.276;2022-10-31T00:20:20;101380.03;;;17.76;68.81
64739;BME280;51175;51.186;0.276;2022-10-31T00:20:58;101381.88;;;17.75;68.72
64739;BME280;51175;51.186;0.276;2022-10-31T00:21:30;101379.22;;;17.75;68.96
64739;BME280;51175;51.186;0.276;2022-10-31T00:22:00;101377.63;;;17.74;68.50
64739;BME280;51175;51.186;0.276;2022-10-31T00:22:30;101377.63;;;17.74;68.91
64739;BME280;51175;51.186;0.276;2022-10-31T00:23:02;101383.78;;;17.75;68.50
64739;BME280;51175;51.186;0.276;2022-10-31T00:23:32;101381.13;;;17.75;68.82
64739;BME280;51175;51.186;0.276;2022-10-31T00:24:03;101382.19;;;17.74;68.89
64739;BME280;51175;51.186;0.276;2022-10-31T00:24:33;101379.50;;;17.74;68.99
64739;BME280;51175;51.186;0.276;2022-10-31T00:25:04;101380.31;;;17.74;68.94
64739;BME280;51175;51.186;0.276;2022-10-31T00:25:37;101379.50;;;17.74;68.71
64739;BME280;51175;51.186;0.276;2022-10-31T00:26:07;101379.78;;;17.72;68.74
64739;BME280;51175;51.186;0.276;2022-10-31T00:26:38;101382.97;;;17.74;68.74
64739;BME280;51175;51.186;0.276;2022-10-31T00:27:08;101388.31;;;17.74;68.53
64739;BME280;51175;51.186;0.276;2022-10-31T00:27:38;101385.66;;;17.74;68.78
64739;BME280;51175;51.186;0.276;2022-10-31T00:28:10;101376.06;;;17.73;68.64
64739;BME280;51175;51.186;0.276;2022-10-31T00:28:42;101378.72;;;17.73;68.57
64739;BME280;51175;51.186;0.276;2022-10-31T00:29:12;101377.63;;;17.74;68.87
64739;BME280;51175;51.186;0.276;2022-10-31T00:29:43;101382.19;;;17.74;68.84
64739;BME280;51175;51.186;0.276;2022-10-31T00:30:13;101376.84;;;17.74;68.90
64739;BME280;51175;51.186;0.276;2022-10-31T00:30:43;101377.94;;;17.73;68.78
64739;BME280;51175;51.186;0.276;2022-10-31T00:31:14;101378.72;;;17.73;68.84
64739;BME280;51175;51.186;0.276;2022-10-31T00:31:44;101376.06;;;17.73;68.64
64739;BME280;51175;51.186;0.276;2022-10-31T00:32:15;101377.94;;;17.73;68.83
64739;BME280;51175;51.186;0.276;2022-10-31T00:32:45;101377.94;;;17.73;68.88
64739;BME280;51175;51.186;0.276;2022-10-31T00:33:15;101379.78;;;17.72;68.94
64739;BME280;51175;51.186;0.276;2022-10-31T00:33:46;101379.78;;;17.72;68.76
64739;BME280;51175;51.186;0.276;2022-10-31T00:34:16;101378.72;;;17.73;68.73
64739;BME280;51175;51.186;0.276;2022-10-31T00:34:47;101378.72;;;17.73;68.97
64739;BME280;51175;51.186;0.276;2022-10-31T00:35:17;101375.25;;;17.73;68.88
64739;BME280;51175;51.186;0.276;2022-10-31T00:35:50;101377.94;;;17.73;68.70
64739;BME280;51175;51.186;0.276;2022-10-31T00:36:21;101377.13;;;17.72;68.54
64739;BME280;51175;51.186;0.276;2022-10-31T00:36:51;101377.13;;;17.72;68.88
64739;BME280;51175;51.186;0.276;2022-10-31T00:37:22;101379.00;;;17.72;68.53
64739;BME280;51175;51.186;0.276;2022-10-31T00:37:52;101382.47;;;17.72;68.64
64739;BME280;51175;51.186;0.276;2022-10-31T00:38:22;101376.34;;;17.72;68.63
64739;BME280;51175;51.186;0.276;2022-10-31T00:38:53;101382.47;;;17.72;68.60
64739;BME280;51175;51.186;0.276;2022-10-31T00:39:23;101386.22;;;17.71;68.63
64739;BME280;51175;51.186;0.276;2022-10-31T00:39:54;101376.34;;;17.72;68.73
64739;BME280;51175;51.186;0.276;2022-10-31T00:40:24;101382.47;;;17.72;68.50
64739;BME280;51175;51.186;0.276;2022-10-31T00:40:54;101384.34;;;17.72;68.85
64739;BME280;51175;51.186;0.276;2022-10-31T00:41:25;101381.69;;;17.72;68.51
64739;BME280;51175;51.186;0.276;2022-10-31T00:41:55;101386.22;;;17.71;68.93
64739;BME280;51175;51.186;0.276;2022-10-31T00:42:25;101372.06;;;17.71;68.69
64739;BME280;51175;51.186;0.276;2022-10-31T00:42:56;101380.06;;;17.71;69.04
64739;BME280;51175;51.186;0.276;2022-10-31T00:43:26;101380.88;;;17.71;68.77
64739;BME280;51175;51.186;0.276;2022-10-31T00:43:57;101387.03;;;17.72;68.85
64739;BME280;51175;51.186;0.276;2022-10-31T00:44:27;101379.00;;;17.72;68.55
64739;BME280;51175;51.186;0.276;2022-10-31T00:44:57;101379.78;;;17.72;68.79
64739;BME280;51175;51.186;0.276;2022-10-31T00:45:28;101382.75;;;17.71;68.90
64739;BME280;51175;51.186;0.276;2022-10-31T00:45:58;101382.75;;;17.71;68.72
64739;BME280;51175;51.186;0.276;2022-10-31T00:46:28;101380.88;;;17.71;68.86
64739;BME280;51175;51.186;0.276;2022-10-31T00:46:59;101387.03;;;17.72;68.95
64739;BME280;51175;51.186;0.276;2022-10-31T00:47:29;101378.22;;;17.71;68.75
64739;BME280;51175;51.186;0.276;2022-10-31T00:47:59;101380.06;;;17.71;68.73
64739;BME280;51175;51.186;0.276;2022-10-31T00:48:30;101380.06;;;17.71;68.69
64739;BME280;51175;51.186;0.276;2022-10-31T00:49:01;101381.97;;;17.70;68.85
64739;BME280;51175;51.186;0.276;2022-10-31T00:49:31;101384.66;;;17.70;68.87
64739;BME280;51175;51.186;0.276;2022-10-31T00:50:03;101384.66;;;17.70;68.50
64739;BME280;51175;51.186;0.276;2022-10-31T00:50:33;101385.41;;;17.71;68.91
64739;BME280;51175;51.186;0.276;2022-10-31T00:51:04;101384.66;;;17.70;68.98
64739;BME280;51175;51.186;0.276;2022-10-31T00:51:34;101383.84;;;17.70;68.71
64739;BME280;51175;51.186;0.276;2022-10-31T00:52:04;101383.84;;;17.70;68.63
64739;BME280;51175;51.186;0.276;2022-10-31T00:52:35;101386.50;;;17.70;68.58
64739;BME280;51175;51.186;0.276;2022-10-31T00:53:05;101390.00;;;17.70;68.74
64739;BME280;51175;51.186;0.276;2022-10-31T00:53:36;101387.31;;;17.70;68.90
64739;BME280;51175;51.186;0.276;2022-10-31T00:54:06;101384.66;;;17.70;68.62
64739;BME280;51175;51.186;0.276;2022-10-31T00:54:37;101386.50;;;17.70;68.91
64739;BME280;51175;51.186;0.276;2022-10-31T00:55:07;101383.03;;;17.69;68.52
64739;BME280;51175;51.186;0.276;2022-10-31T00:55:37;101389.19;;;17.70;69.03
64739;BME280;51175;51.186;0.276;2022-10-31T00:56:08;101384.94;;;17.69;68.57
64739;BME280;51175;51.186;0.276;2022-10-31T00:56:39;101388.38;;;17.69;68.79
64739;BME280;51175;51.186;0.276;2022-10-31T00:57:09;101380.38;;;17.69;68.82
64739;BME280;51175;51.186;0.276;2022-10-31T00:57:39;101388.38;;;17.69;68.77
64739;BME280;51175;51.186;0.276;2022-10-31T00:58:10;101391.03;;;17.69;68.79
64739;BME280;51175;51.186;0.276;2022-10-31T00:58:40;101387.59;;;17.69;68.82
64739;BME280;51175;51.186;0.276;2022-10-31T00:59:10;101390.28;;;17.69;68.62
64739;BME280;51175;51.186;0.276;2022-10-31T00:59:41;101391.03;;;17.69;68.60
64739;BME280;51175;51.186;0.276;2022-10-31T01:00:11;101393.72;;;17.69;68.83
64739;BME280;51175;51.186;0.276;2022-10-31T01:00:42;101386.00;;;17.68;68.66
64739;BME280;51175;51.186;0.276;2022-10-31T01:01:12;101388.66;;;17.68;68.73
64739;BME280;51175;51.186;0.276;2022-10-31T01:01:42;101392.94;;;17.69;68.61
64739;BME280;51175;51.186;0.276;2022-10-31T01:02:13;101389.47;;;17.68;68.79
64739;BME280;51175;51.186;0.276;2022-10-31T01:02:43;101394.81;;;17.68;69.13
64739;BME280;51175;51.186;0.276;2022-10-31T01:03:13;101393.22;;;17.67;68.89
64739;BME280;51175;51.186;0.276;2022-10-31T01:03:44;101396.69;;;17.68;68.93
64739;BME280;51175;51.186;0.276;2022-10-31T01:04:14;101392.13;;;17.68;68.83
64739;BME280;51175;51.186;0.276;2022-10-31T01:04:45;101391.34;;;17.68;68.56
64739;BME280;51175;51.186;0.276;2022-10-31T01:05:15;101387.88;;;17.67;68.68
64739;BME280;51175;51.186;0.276;2022-10-31T01:05:55;101388.66;;;17.68;68.72
64739;BME280;51175;51.186;0.276;2022-10-31T01:06:25;101386.00;;;17.68;68.65
64739;BME280;51175;51.186;0.276;2022-10-31T01:06:56;101391.63;;;17.66;68.68
64739;BME280;51175;51.186;0.276;2022-10-31T01:07:26;101386.28;;;17.66;68.58
64739;BME280;51175;51.186;0.276;2022-10-31T01:07:56;101391.63;;;17.66;68.96
64739;BME280;51175;51.186;0.276;2022-10-31T01:08:27;101388.94;;;17.66;68.86
64739;BME280;51175;51.186;0.276;2022-10-31T01:08:58;101391.63;;;17.66;68.57
64739;BME280;51175;51.186;0.276;2022-10-31T01:09:29;101393.47;;;17.66;68.83
64739;BME280;51175;51.186;0.276;2022-10-31T01:09:59;101390.03;;;17.65;68.81
64739;BME280;51175;51.186;0.276;2022-10-31T01:10:29;101388.16;;;17.66;68.99
64739;BME280;51175;51.186;0.276;2022-10-31T01:11:06;101391.91;;;17.65;68.81
64739;BME280;51175;51.186;0.276;2022-10-31T01:11:37;101386.28;;;17.66;68.83
64739;BME280;51175;51.186;0.276;2022-10-31T01:12:08;101390.81;;;17.66;68.75
64739;BME280;51175;51.186;0.276;2022-10-31T01:12:39;101387.38;;;17.65;68.61
64739;BME280;51175;51.186;0.276;2022-10-31T01:13:11;101390.81;;;17.66;68.61
64739;BME280;51175;51.186;0.276;2022-10-31T01:13:43;101392.72;;;17.65;68.90
64739;BME280;51175;51.186;0.276;2022-10-31T01:14:13;101394.56;;;17.65;68.54
64739;BME280;51175;51.186;0.276;2022-10-31T01:14:45;101386.56;;;17.65;68.80
64739;BME280;51175;51.186;0.276;2022-10-31T01:15:18;101397.25;;;17.65;68.66
64739;BME280;51175;51.186;0.276;2022-10-31T01:15:54;101390.03;;;17.65;68.75
64739;BME280;51175;51.186;0.276;2022-10-31T01:16:26;101388.44;;;17.64;68.84
64739;BME280;51175;51.186;0.276;2022-10-31T01:16:56;101391.09;;;17.64;68.76
64739;BME280;51175;51.186;0.276;2022-10-31T01:17:27;101390.31;;;17.64;68.68
64739;BME280;51175;51.186;0.276;2022-10-31T01:17:57;101392.19;;;17.63;68.50
64739;BME280;51175;51.186;0.276;2022-10-31T01:18:27;101399.13;;;17.64;68.86
64739;BME280;51175;51.186;0.276;2022-10-31T01:18:58;101391.38;;;17.62;69.04
64739;BME280;51175;51.186;0.276;2022-10-31T01:19:28;101386.84;;;17.63;68.71
64739;BME280;51175;51.186;0.276;2022-10-31T01:19:59;101392.19;;;17.63;68.94
64739;BME280;51175;51.186;0.276;2022-10-31T01:20:29;101384.97;;;17.64;69.01
64739;BME280;51175;51.186;0.276;2022-10-31T01:21:23;101387.66;;;17.64;68.79
64739;BME280;51175;51.186;0.276;2022-10-31T01:21:55;101388.72;;;17.62;68.72
64739;BME280;51175;51.186;0.276;2022-10-31T01:22:25;101388.72;;;17.62;68.88
64739;BME280;51175;51.186;0.276;2022-10-31T01:22:56;101389.81;;;17.61;68.56
64739;BME280;51175;51.186;0.276;2022-10-31T01:23:27;101395.16;;;17.61;68.79
64739;BME280;51175;51.186;0.276;2022-10-31T01:23:59;101391.66;;;17.61;68.82
64739;BME280;51175;51.186;0.276;2022-10-31T01:24:29;101389.81;;;17.61;68.59
64739;BME280;51175;51.186;0.276;2022-10-31T01:25:00;101385.28;;;17.62;68.82
64739;BME280;51175;51.186;0.276;2022-10-31T01:25:30;101390.91;;;17.60;68.78
64739;BME280;51175;51.186;0.276;2022-10-31T01:26:13;101387.41;;;17.60;69.03
64739;BME280;51175;51.186;0.276;2022-10-31T01:26:44;101392.47;;;17.61;69.01
64739;BME280;51175;51.186;0.276;2022-10-31T01:27:14;101392.75;;;17.60;68.64
64739;BME280;51175;51.186;0.276;2022-10-31T01:27:44;101382.88;;;17.60;68.59
64739;BME280;51175;51.186;0.276;2022-10-31T01:28:15;101384.75;;;17.60;68.79
64739;BME280;51175;51.186;0.276;2022-10-31T01:29:22;101385.84;;;17.59;68.96
64739;BME280;51175;51.186;0.276;2022-10-31T01:29:53;101390.91;;;17.60;68.97
64739;BME280;51175;51.186;0.276;2022-10-31T01:30:23;101383.94;;;17.59;68.74
64739;BME280;51175;51.186;0.276;2022-10-31T01:30:53;101385.84;;;17.59;68.86
64739;BME280;51175;51.186;0.276;2022-10-31T01:31:26;101387.72;;;17.58;69.03
64739;BME280;51175;51.186;0.276;2022-10-31T01:31:56;101386.91;;;17.58;68.68
64739;BME280;51175;51.186;0.276;2022-10-31T01:32:27;101379.69;;;17.58;68.66
64739;BME280;51175;51.186;0.276;2022-10-31T01:33:01;101387.41;;;17.60;68.74
64739;BME280;51175;51.186;0.276;2022-10-31T01:33:31;101383.16;;;17.59;68.79
64739;BME280;51175;51.186;0.276;2022-10-31T01:34:02;101384.22;;;17.58;68.81
64739;BME280;51175;51.186;0.276;2022-10-31T01:34:33;101379.69;;;17.58;68.76
64739;BME280;51175;51.186;0.276;2022-10-31T01:35:03;101382.38;;;17.58;68.73
64739;BME280;51175;51.186;0.276;2022-10-31T01:35:34;101385.84;;;17.59;68.73
64739;BME280;51175;51.186;0.276;2022-10-31T01:36:24;101382.38;;;17.58;68.73
64739;BME280;51175;51.186;0.276;2022-10-31T01:36:54;101391.19;;;17.59;68.97
64739;BME280;51175;51.186;0.276;2022-10-31T01:37:25;101384.22;;;17.58;68.67
64739;BME280;51175;51.186;0.276;2022-10-31T01:37:55;101380.78;;;17.57;68.58
64739;BME280;51175;51.186;0.276;2022-10-31T01:38:26;101386.13;;;17.57;68.72
64739;BME280;51175;51.186;0.276;2022-10-31T01:38:59;101380.78;;;17.57;68.71
64739;BME280;51175;51.186;0.276;2022-10-31T01:39:30;101388.78;;;17.57;68.89
64739;BME280;51175;51.186;0.276;2022-10-31T01:40:01;101385.31;;;17.57;68.72
64739;BME280;51175;51.186;0.276;2022-10-31T01:40:31;101388.00;;;17.57;68.76
64739;BME280;51175;51.186;0.276;2022-10-31T01:41:01;101384.50;;;17.56;68.56
64739;BME280;51175;51.186;0.276;2022-10-31T01:41:34;101383.75;;;17.56;68.83
64739;BME280;51175;51.186;0.276;2022-10-31T01:42:05;101379.19;;;17.56;68.77
64739;BME280;51175;51.186;0.276;2022-10-31T01:42:35;101386.41;;;17.56;68.80
64739;BME280;51175;51.186;0.276;2022-10-31T01:43:11;101378.41;;;17.56;68.72
64739;BME280;51175;51.186;0.276;2022-10-31T01:44:50;101388.00;;;17.57;68.57
64739;BME280;51175;51.186;0.276;2022-10-31T01:45:21;101381.06;;;17.56;68.90
64739;BME280;51175;51.186;0.276;2022-10-31T01:45:53;101381.06;;;17.56;68.81
64739;BME280;51175;51.186;0.276;2022-10-31T01:47:14;101388.28;;;17.55;68.78
64739;BME280;51175;51.186;0.276;2022-10-31T01:47:46;101384.81;;;17.55;68.84
64739;BME280;51175;51.186;0.276;2022-10-31T01:48:23;101378.69;;;17.54;68.86
64739;BME280;51175;51.186;0.276;2022-10-31T01:48:55;101384.03;;;17.54;68.75
64739;BME280;51175;51.186;0.276;2022-10-31T01:49:35;101387.47;;;17.55;68.96
64739;BME280;51175;51.186;0.276;2022-10-31T01:50:35;101390.94;;;17.55;68.82
64739;BME280;51175;51.186;0.276;2022-10-31T01:51:08;101386.69;;;17.54;68.79
64739;BME280;51175;51.186;0.276;2022-10-31T01:51:45;101387.75;;;17.53;68.63
64739;BME280;51175;51.186;0.276;2022-10-31T01:52:35;101387.75;;;17.53;68.89
64739;BME280;51175;51.186;0.276;2022-10-31T01:53:09;101383.50;;;17.52;68.82
64739;BME280;51175;51.186;0.276;2022-10-31T01:53:42;101382.69;;;17.52;68.84
64739;BME280;51175;51.186;0.276;2022-10-31T01:54:16;101382.69;;;17.52;68.85
64739;BME280;51175;51.186;0.276;2022-10-31T01:54:51;101385.66;;;17.50;68.79
64739;BME280;51175;51.186;0.276;2022-10-31T01:55:27;101382.69;;;17.52;68.78
64739;BME280;51175;51.186;0.276;2022-10-31T01:55:59;101386.47;;;17.50;68.86
64739;BME280;51175;51.186;0.276;2022-10-31T01:56:30;101374.97;;;17.50;68.69
64739;BME280;51175;51.186;0.276;2022-10-31T01:57:03;101380.31;;;17.50;68.97
64739;BME280;51175;51.186;0.276;2022-10-31T01:57:37;101376.88;;;17.49;68.81
64739;BME280;51175;51.186;0.276;2022-10-31T01:58:13;101376.88;;;17.49;68.80
64739;BME280;51175;51.186;0.276;2022-10-31T01:58:45;101376.88;;;17.49;68.96
64739;BME280;51175;51.186;0.276;2022-10-31T01:59:19;101370.72;;;17.49;69.11
64739;BME280;51175;51.186;0.276;2022-10-31T01:59:55;101378.72;;;17.49;68.99
64739;BME280;51175;51.186;0.276;2022-10-31T02:00:27;101373.41;;;17.49;69.01
64739;BME280;51175;51.186;0.276;2022-10-31T02:01:01;101373.41;;;17.49;68.86
64739;BME280;51175;51.186;0.276;2022-10-31T02:01:32;101369.91;;;17.48;68.72
64739;BME280;51175;51.186;0.276;2022-10-31T02:02:02;101369.63;;;17.50;68.67
64739;BME280;51175;51.186;0.276;2022-10-31T02:02:33;101371.53;;;17.49;69.02
64739;BME280;51175;51.186;0.276;2022-10-31T02:03:03;101371.81;;;17.48;68.93
64739;BME280;51175;51.186;0.276;2022-10-31T02:03:33;101368.06;;;17.49;68.75
64739;BME280;51175;51.186;0.276;2022-10-31T02:04:05;101375.25;;;17.48;68.90
64739;BME280;51175;51.186;0.276;2022-10-31T02:04:36;101371.81;;;17.48;68.96
64739;BME280;51175;51.186;0.276;2022-10-31T02:05:11;101373.41;;;17.49;68.91
64739;BME280;51175;51.186;0.276;2022-10-31T02:05:42;101370.72;;;17.49;68.66
64739;BME280;51175;51.186;0.276;2022-10-31T02:06:21;101368.06;;;17.49;68.91
64739;BME280;51175;51.186;0.276;2022-10-31T02:07:13;101373.09;;;17.50;68.58
64739;BME280;51175;51.186;0.276;2022-10-31T02:07:49;101369.16;;;17.48;68.60
64739;BME280;51175;51.186;0.276;2022-10-31T02:08:57;101366.75;;;17.46;68.65
64739;BME280;51175;51.186;0.276;2022-10-31T02:09:29;101369.44;;;17.46;68.76
64739;BME280;51175;51.186;0.276;2022-10-31T02:10:02;101371.28;;;17.46;68.94
64739;BME280;51175;51.186;0.276;2022-10-31T02:10:34;101368.63;;;17.46;68.84
64739;BME280;51175;51.186;0.276;2022-10-31T02:11:06;101370.50;;;17.45;68.63
64739;BME280;51175;51.186;0.276;2022-10-31T02:11:37;101367.03;;;17.45;68.71
64739;BME280;51175;51.186;0.276;2022-10-31T02:12:09;101373.16;;;17.45;68.70
64739;BME280;51175;51.186;0.276;2022-10-31T02:12:40;101365.16;;;17.45;68.70
64739;BME280;51175;51.186;0.276;2022-10-31T02:13:12;101367.03;;;17.45;68.93
64739;BME280;51175;51.186;0.276;2022-10-31T02:13:43;101358.22;;;17.44;68.99
64739;BME280;51175;51.186;0.276;2022-10-31T02:14:13;101367.03;;;17.45;69.05
64739;BME280;51175;51.186;0.276;2022-10-31T02:14:43;101360.91;;;17.44;68.67
64739;BME280;51175;51.186;0.276;2022-10-31T02:15:14;101361.69;;;17.45;68.80
64739;BME280;51175;51.186;0.276;2022-10-31T02:15:47;101367.81;;;17.45;68.79
64739;BME280;51175;51.186;0.276;2022-10-31T02:16:19;101361.69;;;17.45;68.67
64739;BME280;51175;51.186;0.276;2022-10-31T02:16:49;101362.47;;;17.45;68.73
64739;BME280;51175;51.186;0.276;2022-10-31T02:17:19;101361.69;;;17.45;68.98
64739;BME280;51175;51.186;0.276;2022-10-31T02:17:51;101362.47;;;17.45;68.60
64739;BME280;51175;51.186;0.276;2022-10-31T02:18:23;101357.13;;;17.45;68.49
64739;BME280;51175;51.186;0.276;2022-10-31T02:18:55;101361.69;;;17.45;68.60
64739;BME280;51175;51.186;0.276;2022-10-31T02:19:33;101362.47;;;17.45;68.64
64739;BME280;51175;51.186;0.276;2022-10-31T02:21:43;101360.63;;;17.46;68.74
64739;BME280;51175;51.186;0.276;2022-10-31T02:22:30;101362.47;;;17.45;68.50
64739;BME280;51175;51.186;0.276;2022-10-31T02:24:06;101360.09;;;17.44;68.63
64739;BME280;51175;51.186;0.276;2022-10-31T02:27:27;101356.13;;;17.41;68.58
64739;BME280;51175;51.186;0.276;2022-10-31T02:30:18;101356.69;;;17.38;68.78
64739;BME280;51175;51.186;0.276;2022-10-31T02:32:29;101359.94;;;17.35;68.96
64739;BME280;51175;51.186;0.276;2022-10-31T02:36:24;101355.69;;;17.34;68.90
64739;BME280;51175;51.186;0.276;2022-10-31T02:37:10;101357.03;;;17.31;69.09
64739;BME280;51175;51.186;0.276;2022-10-31T02:37:54;101353.56;;;17.31;68.72
64739;BME280;51175;51.186;0.276;2022-10-31T02:39:24;101350.09;;;17.30;68.95
64739;BME280;51175;51.186;0.276;2022-10-31T02:40:35;101341.59;;;17.28;69.18
64739;BME280;51175;51.186;0.276;2022-10-31T02:42:16;101347.72;;;17.29;68.91
64739;BME280;51175;51.186;0.276;2022-10-31T02:42:58;101346.91;;;17.28;69.13
64739;BME280;51175;51.186;0.276;2022-10-31T02:44:16;101340.78;;;17.28;69.28
64739;BME280;51175;51.186;0.276;2022-10-31T02:45:45;101336.25;;;17.28;69.08
64739;BME280;51175;51.186;0.276;2022-10-31T02:46:34;101342.66;;;17.27;68.83
64739;BME280;51175;51.186;0.276;2022-10-31T02:47:09;101341.88;;;17.27;68.92
64739;BME280;51175;51.186;0.276;2022-10-31T02:47:43;101333.84;;;17.27;69.31
64739;BME280;51175;51.186;0.276;2022-10-31T02:48:19;101339.19;;;17.27;69.22
64739;BME280;51175;51.186;0.276;2022-10-31T02:48:54;101336.53;;;17.27;69.31
64739;BME280;51175;51.186;0.276;2022-10-31T02:50:14;101344.25;;;17.28;69.28
64739;BME280;51175;51.186;0.276;2022-10-31T02:50:59;101331.19;;;17.27;69.15
64739;BME280;51175;51.186;0.276;2022-10-31T02:51:30;101332.75;;;17.28;69.05
64739;BME280;51175;51.186;0.276;2022-10-31T02:52:00;101334.66;;;17.27;69.24
64739;BME280;51175;51.186;0.276;2022-10-31T02:52:33;101334.66;;;17.27;69.13
64739;BME280;51175;51.186;0.276;2022-10-31T02:53:04;101338.91;;;17.28;69.10
64739;BME280;51175;51.186;0.276;2022-10-31T02:53:35;101338.09;;;17.28;69.21
64739;BME280;51175;51.186;0.276;2022-10-31T02:54:17;101336.25;;;17.28;68.93
64739;BME280;51175;51.186;0.276;2022-10-31T02:54:48;101330.09;;;17.28;69.22
64739;BME280;51175;51.186;0.276;2022-10-31T02:56:36;101336.25;;;17.28;68.71
64739;BME280;51175;51.186;0.276;2022-10-31T02:57:07;101335.44;;;17.28;69.19
64739;BME280;51175;51.186;0.276;2022-10-31T02:57:40;101332.75;;;17.28;69.01
64739;BME280;51175;51.186;0.276;2022-10-31T02:58:14;101336.25;;;17.28;69.08
64739;BME280;51175;51.186;0.276;2022-10-31T02:58:59;101333.28;;;17.30;69.04
64739;BME280;51175;51.186;0.276;2022-10-31T02:59:32;101335.97;;;17.30;69.05
64739;BME280;51175;51.186;0.276;2022-10-31T03:00:07;101337.81;;;17.29;68.81
64739;BME280;51175;51.186;0.276;2022-10-31T03:00:49;101338.63;;;17.30;68.81
64739;BME280;51175;51.186;0.276;2022-10-31T03:01:51;101335.69;;;17.31;68.96
64739;BME280;51175;51.186;0.276;2022-10-31T03:05:23;101341.59;;;17.28;68.82
64739;BME280;51175;51.186;0.276;2022-10-31T03:07:23;101336.53;;;17.27;68.81
64739;BME280;51175;51.186;0.276;2022-10-31T03:08:55;101336.00;;;17.24;69.09
64739;BME280;51175;51.186;0.276;2022-10-31T03:10:20;101333.63;;;17.23;69.04
64739;BME280;51175;51.186;0.276;2022-10-31T03:10:58;101332.84;;;17.22;69.19
64739;BME280;51175;51.186;0.276;2022-10-31T03:11:35;101333.63;;;17.23;69.08
64739;BME280;51175;51.186;0.276;2022-10-31T03:12:16;101332.03;;;17.22;69.36
64739;BME280;51175;51.186;0.276;2022-10-31T03:13:00;101338.19;;;17.22;69.02
64739;BME280;51175;51.186;0.276;2022-10-31T03:14:01;101333.91;;;17.21;69.29
64739;BME280;51175;51.186;0.276;2022-10-31T03:14:51;101341.63;;;17.23;68.86
64739;BME280;51175;51.186;0.276;2022-10-31T03:15:25;101339.25;;;17.21;69.12
64739;BME280;51175;51.186;0.276;2022-10-31T03:17:00;101329.66;;;17.20;69.37
64739;BME280;51175;51.186;0.276;2022-10-31T03:17:36;101329.66;;;17.20;69.37
64739;BME280;51175;51.186;0.276;2022-10-31T03:18:46;101332.31;;;17.20;69.24
64739;BME280;51175;51.186;0.276;2022-10-31T03:19:33;101328.06;;;17.19;69.26
64739;BME280;51175;51.186;0.276;2022-10-31T03:20:07;101321.94;;;17.19;69.06
64739;BME280;51175;51.186;0.276;2022-10-31T03:20:44;101328.06;;;17.19;69.12
64739;BME280;51175;51.186;0.276;2022-10-31T03:21:26;101328.84;;;17.20;69.20
64739;BME280;51175;51.186;0.276;2022-10-31T03:22:03;101332.31;;;17.20;69.08